sensor_id;sensor_type;location;lat;lon;timestamp;pressure;altitude;pressure_sealevel;temperature;humidity
4590;BME280;2307;48.448;9.216;2023-03-13T00:00:19;94980.88;;;9.72;93.48
4590;BME280;2307;48.448;9.216;2023-03-13T00:02:46;94986.72;;;9.74;93.25
4590;BME280;2307;48.448;9.216;2023-03-13T00:05:14;94980.25;;;9.81;91.99
4590;BME280;2307;48.448;9.216;2023-03-13T00:07:40;94975.78;;;9.82;91.67
4590;BME280;2307;48.448;9.216;2023-03-13T00:10:07;94974.03;;;9.87;91.63
4590;BME280;2307;48.448;9.216;2023-03-13T00:12:33;94968.09;;;9.80;92.60
4590;BME280;2307;48.448;9.216;2023-03-13T00:15:00;94965.72;;;9.79;93.00
4590;BME280;2307;48.448;9.216;2023-03-13T00:17:28;94966.53;;;9.79;93.56
4590;BME280;2307;48.448;9.216;2023-03-13T00:19:54;94971.00;;;9.79;95.39
4590;BME280;2307;48.448;9.216;2023-03-13T00:22:20;94971.47;;;9.76;96.30
4590;BME280;2307;48.448;9.216;2023-03-13T00:24:47;94966.69;;;9.73;95.65
4590;BME280;2307;48.448;9.216;2023-03-13T00:27:13;94959.63;;;9.78;95.48
4590;BME280;2307;48.448;9.216;2023-03-13T00:29:42;94962.66;;;9.87;94.71
4590;BME280;2307;48.448;9.216;2023-03-13T00:32:09;94959.97;;;9.82;94.62
4590;BME280;2307;48.448;9.216;2023-03-13T00:34:37;94969.47;;;9.83;94.26
4590;BME280;2307;48.448;9.216;2023-03-13T00:37:03;94972.13;;;9.83;95.48
4590;BME280;2307;48.448;9.216;2023-03-13T00:39:30;94968.84;;;9.92;94.12
4590;BME280;2307;48.448;9.216;2023-03-13T00:41:56;94972.91;;;10.00;93.24
4590;BME280;2307;48.448;9.216;2023-03-13T00:44:22;94977.84;;;9.96;94.45
4590;BME280;2307;48.448;9.216;2023-03-13T00:46:49;94980.25;;;9.98;93.60
4590;BME280;2307;48.448;9.216;2023-03-13T00:49:15;94973.22;;;10.03;93.79
4590;BME280;2307;48.448;9.216;2023-03-13T00:51:43;94971.06;;;10.00;95.31
4590;BME280;2307;48.448;9.216;2023-03-13T00:54:09;94964.59;;;9.91;96.42
4590;BME280;2307;48.448;9.216;2023-03-13T00:56:36;94970.19;;;9.95;97.57
4590;BME280;2307;48.448;9.216;2023-03-13T00:59:02;94964.97;;;10.00;97.23
4590;BME280;2307;48.448;9.216;2023-03-13T01:01:29;94967.06;;;9.98;97.62
4590;BME280;2307;48.448;9.216;2023-03-13T01:03:58;94961.22;;;9.96;98.81
4590;BME280;2307;48.448;9.216;2023-03-13T01:06:26;94955.56;;;9.87;100.00
4590;BME280;2307;48.448;9.216;2023-03-13T01:08:54;94959.31;;;9.91;100.00
4590;BME280;2307;48.448;9.216;2023-03-13T01:11:22;94957.22;;;9.93;100.00
4590;BME280;2307;48.448;9.216;2023-03-13T01:13:49;94952.75;;;9.94;100.00
4590;BME280;2307;48.448;9.216;2023-03-13T01:16:19;94941.31;;;10.05;100.00
4590;BME280;2307;48.448;9.216;2023-03-13T01:18:46;94939.16;;;10.02;100.00
4590;BME280;2307;48.448;9.216;2023-03-13T01:21:13;94935.41;;;9.98;100.00
4590;BME280;2307;48.448;9.216;2023-03-13T01:23:40;94929.56;;;9.96;100.00
4590;BME280;2307;48.448;9.216;2023-03-13T01:26:08;94932.28;;;10.01;100.00
4590;BME280;2307;48.448;9.216;2023-03-13T01:28:37;94920.50;;;10.08;100.00
4590;BME280;2307;48.448;9.216;2023-03-13T01:31:09;94922.06;;;10.04;100.00
4590;BME280;2307;48.448;9.216;2023-03-13T01:33:36;94926.84;;;10.07;100.00
4590;BME280;2307;48.448;9.216;2023-03-13T01:36:07;94915.00;;;10.10;100.00
4590;BME280;2307;48.448;9.216;2023-03-13T01:38:34;94911.00;;;10.07;100.00
4590;BME280;2307;48.448;9.216;2023-03-13T01:41:04;94915.00;;;10.10;100.00
4590;BME280;2307;48.448;9.216;2023-03-13T01:43:35;94909.81;;;10.15;100.00
4590;BME280;2307;48.448;9.216;2023-03-13T01:46:03;94904.94;;;10.07;100.00
4590;BME280;2307;48.448;9.216;2023-03-13T01:48:34;94886.22;;;10.08;100.00
4590;BME280;2307;48.448;9.216;2023-03-13T01:51:07;94893.25;;;10.20;100.00
4590;BME280;2307;48.448;9.216;2023-03-13T01:53:34;94894.88;;;10.21;100.00
4590;BME280;2307;48.448;9.216;2023-03-13T01:56:03;94890.19;;;10.28;100.00
4590;BME280;2307;48.448;9.216;2023-03-13T01:58:32;94886.78;;;10.27;100.00
4590;BME280;2307;48.448;9.216;2023-03-13T02:00:58;94882.16;;;10.39;100.00
4590;BME280;2307;48.448;9.216;2023-03-13T02:03:25;94863.56;;;10.29;100.00
4590;BME280;2307;48.448;9.216;2023-03-13T02:05:53;94864.91;;;10.32;100.00
4590;BME280;2307;48.448;9.216;2023-03-13T02:08:21;94863.91;;;10.38;100.00
4590;BME280;2307;48.448;9.216;2023-03-13T02:10:50;94862.09;;;10.38;100.00
4590;BME280;2307;48.448;9.216;2023-03-13T02:13:19;94869.78;;;10.40;100.00
4590;BME280;2307;48.448;9.216;2023-03-13T02:15:47;94862.34;;;10.37;100.00
4590;BME280;2307;48.448;9.216;2023-03-13T02:18:14;94859.44;;;10.38;100.00
4590;BME280;2307;48.448;9.216;2023-03-13T02:20:40;94861.84;;;10.40;100.00
4590;BME280;2307;48.448;9.216;2023-03-13T02:23:08;94841.63;;;10.50;100.00
4590;BME280;2307;48.448;9.216;2023-03-13T02:25:40;94840.31;;;10.53;100.00
4590;BME280;2307;48.448;9.216;2023-03-13T02:28:09;94848.31;;;10.58;100.00
4590;BME280;2307;48.448;9.216;2023-03-13T02:30:37;94850.16;;;10.57;100.00
4590;BME280;2307;48.448;9.216;2023-03-13T02:33:04;94843.84;;;10.58;100.00
4590;BME280;2307;48.448;9.216;2023-03-13T02:35:31;94848.06;;;10.59;100.00
4590;BME280;2307;48.448;9.216;2023-03-13T02:37:58;94831.69;;;10.57;100.00
4590;BME280;2307;48.448;9.216;2023-03-13T02:40:27;94835.97;;;10.63;100.00
4590;BME280;2307;48.448;9.216;2023-03-13T02:42:55;94834.84;;;10.59;100.00
4590;BME280;2307;48.448;9.216;2023-03-13T02:45:25;94819.81;;;10.60;100.00
4590;BME280;2307;48.448;9.216;2023-03-13T02:47:51;94818.47;;;10.57;100.00
4590;BME280;2307;48.448;9.216;2023-03-13T02:50:18;94821.53;;;10.71;100.00
4590;BME280;2307;48.448;9.216;2023-03-13T02:52:45;94806.13;;;10.63;100.00
4590;BME280;2307;48.448;9.216;2023-03-13T02:55:15;94800.28;;;10.61;100.00
4590;BME280;2307;48.448;9.216;2023-03-13T02:57:46;94804.28;;;10.63;100.00
4590;BME280;2307;48.448;9.216;2023-03-13T03:00:14;94783.44;;;10.67;100.00
4590;BME280;2307;48.448;9.216;2023-03-13T03:02:41;94786.63;;;10.69;100.00
4590;BME280;2307;48.448;9.216;2023-03-13T03:05:08;94765.19;;;10.65;100.00
4590;BME280;2307;48.448;9.216;2023-03-13T03:07:34;94775.53;;;10.67;100.00
4590;BME280;2307;48.448;9.216;2023-03-13T03:10:01;94769.00;;;10.75;100.00
4590;BME280;2307;48.448;9.216;2023-03-13T03:12:27;94778.88;;;10.84;100.00
4590;BME280;2307;48.448;9.216;2023-03-13T03:14:53;94775.97;;;10.86;100.00
4590;BME280;2307;48.448;9.216;2023-03-13T03:17:21;94758.50;;;10.85;100.00
4590;BME280;2307;48.448;9.216;2023-03-13T03:19:47;94767.84;;;10.97;100.00
4590;BME280;2307;48.448;9.216;2023-03-13T03:22:14;94765.47;;;10.96;100.00
4590;BME280;2307;48.448;9.216;2023-03-13T03:24:40;94742.50;;;10.96;100.00
4590;BME280;2307;48.448;9.216;2023-03-13T03:27:07;94749.94;;;11.04;100.00
4590;BME280;2307;48.448;9.216;2023-03-13T03:29:33;94747.56;;;11.03;100.00
4590;BME280;2307;48.448;9.216;2023-03-13T03:31:59;94731.97;;;11.01;100.00
4590;BME280;2307;48.448;9.216;2023-03-13T03:34:27;94721.19;;;11.08;100.00
4590;BME280;2307;48.448;9.216;2023-03-13T03:36:53;94715.38;;;11.11;100.00
4590;BME280;2307;48.448;9.216;2023-03-13T03:39:20;94715.44;;;11.16;100.00
4590;BME280;2307;48.448;9.216;2023-03-13T03:41:46;94726.81;;;11.22;100.00
4590;BME280;2307;48.448;9.216;2023-03-13T03:44:13;94737.41;;;11.22;100.00
4590;BME280;2307;48.448;9.216;2023-03-13T03:46:39;94722.63;;;11.26;100.00
4590;BME280;2307;48.448;9.216;2023-03-13T03:49:05;94742.50;;;11.33;100.00
4590;BME280;2307;48.448;9.216;2023-03-13T03:51:33;94742.03;;;11.41;100.00
4590;BME280;2307;48.448;9.216;2023-03-13T03:53:59;94750.72;;;11.37;100.00
4590;BME280;2307;48.448;9.216;2023-03-13T03:56:26;94751.00;;;11.45;100.00
4590;BME280;2307;48.448;9.216;2023-03-13T03:58:52;94751.31;;;11.49;100.00
4590;BME280;2307;48.448;9.216;2023-03-13T04:01:19;94756.34;;;11.50;100.00
4590;BME280;2307;48.448;9.216;2023-03-13T04:03:45;94753.19;;;11.53;100.00
4590;BME280;2307;48.448;9.216;2023-03-13T04:06:12;94737.78;;;11.45;100.00
4590;BME280;2307;48.448;9.216;2023-03-13T04:08:40;94746.84;;;11.54;100.00
4590;BME280;2307;48.448;9.216;2023-03-13T04:11:06;94746.28;;;11.47;100.00
4590;BME280;2307;48.448;9.216;2023-03-13T04:13:32;94742.03;;;11.41;100.00
4590;BME280;2307;48.448;9.216;2023-03-13T04:15:59;94744.41;;;11.43;100.00
4590;BME280;2307;48.448;9.216;2023-03-13T04:18:25;94736.75;;;11.41;100.00
4590;BME280;2307;48.448;9.216;2023-03-13T04:20:58;94730.44;;;11.47;100.00
4590;BME280;2307;48.448;9.216;2023-03-13T04:23:24;94725.13;;;11.47;100.00
4590;BME280;2307;48.448;9.216;2023-03-13T04:25:52;94736.22;;;11.44;100.00
4590;BME280;2307;48.448;9.216;2023-03-13T04:28:18;94726.69;;;11.38;100.00
4590;BME280;2307;48.448;9.216;2023-03-13T04:30:45;94736.09;;;11.29;100.00
4590;BME280;2307;48.448;9.216;2023-03-13T04:33:11;94725.41;;;11.09;100.00
4590;BME280;2307;48.448;9.216;2023-03-13T04:35:37;94726.34;;;10.93;100.00
4590;BME280;2307;48.448;9.216;2023-03-13T04:38:04;94721.00;;;10.88;100.00
4590;BME280;2307;48.448;9.216;2023-03-13T04:40:30;94720.47;;;10.81;100.00
4590;BME280;2307;48.448;9.216;2023-03-13T04:42:58;94713.53;;;10.75;100.00
4590;BME280;2307;48.448;9.216;2023-03-13T04:45:24;94716.44;;;10.78;100.00
4590;BME280;2307;48.448;9.216;2023-03-13T04:47:52;94725.34;;;10.67;100.00
4590;BME280;2307;48.448;9.216;2023-03-13T04:50:20;94716.19;;;10.75;100.00
4590;BME280;2307;48.448;9.216;2023-03-13T04:52:46;94707.91;;;10.66;100.00
4590;BME280;2307;48.448;9.216;2023-03-13T04:55:13;94710.19;;;10.52;100.00
4590;BME280;2307;48.448;9.216;2023-03-13T04:57:39;94720.97;;;10.51;100.00
4590;BME280;2307;48.448;9.216;2023-03-13T05:00:08;94706.16;;;10.45;100.00
4590;BME280;2307;48.448;9.216;2023-03-13T05:02:35;94705.94;;;10.51;100.00
4590;BME280;2307;48.448;9.216;2023-03-13T05:05:02;94709.03;;;10.43;100.00
4590;BME280;2307;48.448;9.216;2023-03-13T05:07:28;94710.94;;;10.48;100.00
4590;BME280;2307;48.448;9.216;2023-03-13T05:09:54;94710.44;;;10.56;100.00
4590;BME280;2307;48.448;9.216;2023-03-13T05:12:21;94715.28;;;10.64;100.00
4590;BME280;2307;48.448;9.216;2023-03-13T05:14:47;94700.16;;;10.54;100.00
4590;BME280;2307;48.448;9.216;2023-03-13T05:17:16;94683.84;;;10.62;100.00
4590;BME280;2307;48.448;9.216;2023-03-13T05:19:42;94694.47;;;10.68;100.00
4590;BME280;2307;48.448;9.216;2023-03-13T05:22:13;94697.91;;;10.68;100.00
4590;BME280;2307;48.448;9.216;2023-03-13T05:24:39;94694.19;;;10.69;100.00
4590;BME280;2307;48.448;9.216;2023-03-13T05:27:06;94694.50;;;10.73;100.00
4590;BME280;2307;48.448;9.216;2023-03-13T05:29:32;94710.63;;;10.76;100.00
4590;BME280;2307;48.448;9.216;2023-03-13T05:31:59;94712.25;;;10.82;100.00
4590;BME280;2307;48.448;9.216;2023-03-13T05:34:26;94716.22;;;10.80;100.00
4590;BME280;2307;48.448;9.216;2023-03-13T05:36:53;94707.78;;;10.83;100.00
4590;BME280;2307;48.448;9.216;2023-03-13T05:39:19;94707.88;;;10.98;100.00
4590;BME280;2307;48.448;9.216;2023-03-13T05:41:45;94714.50;;;11.00;100.00
4590;BME280;2307;48.448;9.216;2023-03-13T05:44:12;94714.94;;;11.24;100.00
4590;BME280;2307;48.448;9.216;2023-03-13T05:46:38;94727.97;;;11.36;100.00
4590;BME280;2307;48.448;9.216;2023-03-13T05:49:05;94711.94;;;11.52;100.00
4590;BME280;2307;48.448;9.216;2023-03-13T05:51:33;94713.00;;;11.56;100.00
4590;BME280;2307;48.448;9.216;2023-03-13T05:53:59;94716.75;;;11.65;100.00
4590;BME280;2307;48.448;9.216;2023-03-13T05:56:26;94707.50;;;11.68;100.00
4590;BME280;2307;48.448;9.216;2023-03-13T05:58:52;94708.31;;;11.68;100.00
4590;BME280;2307;48.448;9.216;2023-03-13T06:01:18;94700.88;;;11.65;100.00
4590;BME280;2307;48.448;9.216;2023-03-13T06:03:45;94675.53;;;11.69;100.00
4590;BME280;2307;48.448;9.216;2023-03-13T06:06:11;94684.00;;;11.71;100.00
4590;BME280;2307;48.448;9.216;2023-03-13T06:08:39;94675.53;;;11.69;100.00
4590;BME280;2307;48.448;9.216;2023-03-13T06:11:05;94684.22;;;11.65;100.00
4590;BME280;2307;48.448;9.216;2023-03-13T06:13:32;94678.13;;;11.59;100.00
4590;BME280;2307;48.448;9.216;2023-03-13T06:15:59;94683.13;;;11.61;100.00
4590;BME280;2307;48.448;9.216;2023-03-13T06:18:25;94670.19;;;11.59;100.00
4590;BME280;2307;48.448;9.216;2023-03-13T06:20:55;94677.59;;;11.67;100.00
4590;BME280;2307;48.448;9.216;2023-03-13T06:23:22;94679.72;;;11.65;100.00
4590;BME280;2307;48.448;9.216;2023-03-13T06:25:49;94693.78;;;11.71;100.00
4590;BME280;2307;48.448;9.216;2023-03-13T06:28:16;94676.59;;;11.73;100.00
4590;BME280;2307;48.448;9.216;2023-03-13T06:30:42;94681.91;;;11.73;100.00
4590;BME280;2307;48.448;9.216;2023-03-13T06:33:09;94689.06;;;11.73;100.00
4590;BME280;2307;48.448;9.216;2023-03-13T06:35:37;94704.94;;;11.78;100.00
4590;BME280;2307;48.448;9.216;2023-03-13T06:38:04;94685.09;;;11.76;100.00
4590;BME280;2307;48.448;9.216;2023-03-13T06:40:30;94689.59;;;11.80;100.00
4590;BME280;2307;48.448;9.216;2023-03-13T06:42:58;94691.72;;;11.83;100.00
4590;BME280;2307;48.448;9.216;2023-03-13T06:45:25;94721.91;;;11.82;100.00
4590;BME280;2307;48.448;9.216;2023-03-13T06:47:51;94696.75;;;11.85;100.00
4590;BME280;2307;48.448;9.216;2023-03-13T06:50:17;94694.13;;;11.85;100.00
4590;BME280;2307;48.448;9.216;2023-03-13T06:52:45;94692.53;;;11.84;100.00
4590;BME280;2307;48.448;9.216;2023-03-13T06:55:11;94703.38;;;11.87;100.00
4590;BME280;2307;48.448;9.216;2023-03-13T06:57:38;94701.03;;;11.91;100.00
4590;BME280;2307;48.448;9.216;2023-03-13T07:00:07;94707.34;;;11.90;100.00
4590;BME280;2307;48.448;9.216;2023-03-13T07:02:35;94737.81;;;11.92;100.00
4590;BME280;2307;48.448;9.216;2023-03-13T07:05:01;94725.34;;;11.88;100.00
4590;BME280;2307;48.448;9.216;2023-03-13T07:07:29;94721.63;;;11.84;100.00
4590;BME280;2307;48.448;9.216;2023-03-13T07:09:57;94695.19;;;11.89;100.00
4590;BME280;2307;48.448;9.216;2023-03-13T07:12:23;94709.47;;;11.88;100.00
4590;BME280;2307;48.448;9.216;2023-03-13T07:14:49;94705.50;;;11.85;100.00
4590;BME280;2307;48.448;9.216;2023-03-13T07:17:17;94688.31;;;11.88;100.00
4590;BME280;2307;48.448;9.216;2023-03-13T07:19:44;94684.63;;;11.89;100.00
4590;BME280;2307;48.448;9.216;2023-03-13T07:22:10;94698.13;;;11.97;100.00
4590;BME280;2307;48.448;9.216;2023-03-13T07:24:36;94700.78;;;11.97;100.00
4590;BME280;2307;48.448;9.216;2023-03-13T07:27:03;94720.09;;;11.98;100.00
4590;BME280;2307;48.448;9.216;2023-03-13T07:29:29;94698.94;;;12.03;100.00
4590;BME280;2307;48.448;9.216;2023-03-13T07:31:56;94728.31;;;12.01;100.00
4590;BME280;2307;48.448;9.216;2023-03-13T07:34:23;94703.19;;;12.04;100.00
4590;BME280;2307;48.448;9.216;2023-03-13T07:36:50;94712.16;;;12.03;100.00
4590;BME280;2307;48.448;9.216;2023-03-13T07:39:16;94693.13;;;12.01;100.00
4590;BME280;2307;48.448;9.216;2023-03-13T07:41:43;94705.03;;;12.03;100.00
4590;BME280;2307;48.448;9.216;2023-03-13T07:44:09;94695.25;;;12.04;100.00
4590;BME280;2307;48.448;9.216;2023-03-13T07:46:35;94705.03;;;12.08;100.00
4590;BME280;2307;48.448;9.216;2023-03-13T07:49:02;94712.69;;;12.00;100.00
4590;BME280;2307;48.448;9.216;2023-03-13T07:51:30;94698.97;;;12.08;100.00
4590;BME280;2307;48.448;9.216;2023-03-13T07:53:56;94696.31;;;12.08;100.00
4590;BME280;2307;48.448;9.216;2023-03-13T07:56:22;94684.66;;;12.09;100.00
4590;BME280;2307;48.448;9.216;2023-03-13T07:58:49;94695.81;;;12.16;100.00
4590;BME280;2307;48.448;9.216;2023-03-13T08:01:16;94698.97;;;12.13;100.00
4590;BME280;2307;48.448;9.216;2023-03-13T08:03:43;94692.63;;;12.14;100.00
4590;BME280;2307;48.448;9.216;2023-03-13T08:06:10;94689.47;;;12.17;100.00
4590;BME280;2307;48.448;9.216;2023-03-13T08:08:39;94684.69;;;12.14;100.00
4590;BME280;2307;48.448;9.216;2023-03-13T08:11:07;94688.91;;;12.15;100.00
4590;BME280;2307;48.448;9.216;2023-03-13T08:13:34;94706.34;;;12.06;100.00
4590;BME280;2307;48.448;9.216;2023-03-13T08:16:02;94684.09;;;12.02;100.00
4590;BME280;2307;48.448;9.216;2023-03-13T08:18:28;94679.59;;;12.02;100.00
4590;BME280;2307;48.448;9.216;2023-03-13T08:20:59;94685.69;;;12.03;100.00
4590;BME280;2307;48.448;9.216;2023-03-13T08:23:25;94688.38;;;12.08;100.00
4590;BME280;2307;48.448;9.216;2023-03-13T08:25:53;94695.25;;;12.09;100.00
4590;BME280;2307;48.448;9.216;2023-03-13T08:28:20;94671.72;;;12.17;100.00
4590;BME280;2307;48.448;9.216;2023-03-13T08:30:46;94662.97;;;12.22;100.00
4590;BME280;2307;48.448;9.216;2023-03-13T08:33:12;94654.00;;;12.23;100.00
4590;BME280;2307;48.448;9.216;2023-03-13T08:35:39;94662.47;;;12.30;100.00
4590;BME280;2307;48.448;9.216;2023-03-13T08:38:05;94660.34;;;12.37;100.00
4590;BME280;2307;48.448;9.216;2023-03-13T08:40:32;94650.81;;;12.41;100.00
4590;BME280;2307;48.448;9.216;2023-03-13T08:43:00;94648.44;;;12.45;100.00
4590;BME280;2307;48.448;9.216;2023-03-13T08:45:26;94637.59;;;12.56;100.00
4590;BME280;2307;48.448;9.216;2023-03-13T08:47:52;94639.16;;;12.62;100.00
4590;BME280;2307;48.448;9.216;2023-03-13T08:50:19;94635.47;;;12.68;100.00
4590;BME280;2307;48.448;9.216;2023-03-13T08:52:45;94640.25;;;12.71;100.00
4590;BME280;2307;48.448;9.216;2023-03-13T08:55:11;94617.47;;;12.70;100.00
4590;BME280;2307;48.448;9.216;2023-03-13T08:57:38;94622.75;;;12.81;100.00
4590;BME280;2307;48.448;9.216;2023-03-13T09:00:06;94606.31;;;12.94;100.00
4590;BME280;2307;48.448;9.216;2023-03-13T09:02:35;94608.94;;;12.99;100.00
4590;BME280;2307;48.448;9.216;2023-03-13T09:05:01;94609.44;;;13.01;100.00
4590;BME280;2307;48.448;9.216;2023-03-13T09:07:27;94616.06;;;13.13;100.00
4590;BME280;2307;48.448;9.216;2023-03-13T09:09:54;94626.13;;;13.16;100.00
4590;BME280;2307;48.448;9.216;2023-03-13T09:12:20;94613.13;;;13.20;100.00
4590;BME280;2307;48.448;9.216;2023-03-13T09:14:47;94623.19;;;13.38;100.00
4590;BME280;2307;48.448;9.216;2023-03-13T09:17:14;94640.97;;;13.27;100.00
4590;BME280;2307;48.448;9.216;2023-03-13T09:19:41;94632.75;;;13.34;100.00
4590;BME280;2307;48.448;9.216;2023-03-13T09:22:07;94631.09;;;13.53;100.00
4590;BME280;2307;48.448;9.216;2023-03-13T09:24:33;94627.41;;;13.44;100.00
4590;BME280;2307;48.448;9.216;2023-03-13T09:27:00;94622.63;;;13.46;100.00
4590;BME280;2307;48.448;9.216;2023-03-13T09:29:26;94622.88;;;13.50;100.00
4590;BME280;2307;48.448;9.216;2023-03-13T09:31:53;94641.69;;;13.48;100.00
4590;BME280;2307;48.448;9.216;2023-03-13T09:34:20;94626.31;;;13.50;100.00
4590;BME280;2307;48.448;9.216;2023-03-13T09:36:49;94632.63;;;13.64;100.00
4590;BME280;2307;48.448;9.216;2023-03-13T09:39:15;94634.72;;;13.72;100.00
4590;BME280;2307;48.448;9.216;2023-03-13T09:41:52;94630.50;;;13.66;100.00
4590;BME280;2307;48.448;9.216;2023-03-13T09:44:21;94667.34;;;13.73;100.00
4590;BME280;2307;48.448;9.216;2023-03-13T09:46:54;94641.00;;;13.87;100.00
4590;BME280;2307;48.448;9.216;2023-03-13T09:49:29;94638.59;;;13.95;100.00
4590;BME280;2307;48.448;9.216;2023-03-13T09:52:11;94646.72;;;14.14;100.00
4590;BME280;2307;48.448;9.216;2023-03-13T09:54:40;94652.03;;;14.14;100.00
4590;BME280;2307;48.448;9.216;2023-03-13T09:57:11;94655.16;;;14.21;100.00
4590;BME280;2307;48.448;9.216;2023-03-13T09:59:43;94660.13;;;14.32;100.00
4590;BME280;2307;48.448;9.216;2023-03-13T10:02:15;94663.09;;;14.26;100.00
4590;BME280;2307;48.448;9.216;2023-03-13T10:04:47;94646.31;;;14.30;100.00
4590;BME280;2307;48.448;9.216;2023-03-13T10:07:15;94647.44;;;14.24;100.00
4590;BME280;2307;48.448;9.216;2023-03-13T10:09:41;94629.63;;;14.25;100.00
4590;BME280;2307;48.448;9.216;2023-03-13T10:12:10;94646.59;;;14.34;100.00
4590;BME280;2307;48.448;9.216;2023-03-13T10:14:43;94657.66;;;14.51;100.00
4590;BME280;2307;48.448;9.216;2023-03-13T10:17:19;94634.66;;;14.70;100.00
4590;BME280;2307;48.448;9.216;2023-03-13T10:19:50;94643.47;;;14.95;100.00
4590;BME280;2307;48.448;9.216;2023-03-13T10:22:19;94641.97;;;15.12;100.00
4590;BME280;2307;48.448;9.216;2023-03-13T10:24:48;94639.97;;;15.28;100.00
4590;BME280;2307;48.448;9.216;2023-03-13T10:27:15;94629.75;;;15.35;94.63
4590;BME280;2307;48.448;9.216;2023-03-13T10:29:42;94632.47;;;15.30;95.21
4590;BME280;2307;48.448;9.216;2023-03-13T10:32:09;94622.81;;;15.15;94.95
4590;BME280;2307;48.448;9.216;2023-03-13T10:34:44;94648.88;;;15.13;94.82
4590;BME280;2307;48.448;9.216;2023-03-13T10:37:14;94601.56;;;15.10;95.06
4590;BME280;2307;48.448;9.216;2023-03-13T10:39:41;94598.19;;;15.28;94.27
4590;BME280;2307;48.448;9.216;2023-03-13T10:42:08;94617.31;;;15.30;90.90
4590;BME280;2307;48.448;9.216;2023-03-13T10:44:35;94602.03;;;15.41;90.11
4590;BME280;2307;48.448;9.216;2023-03-13T10:47:02;94596.41;;;15.42;86.83
4590;BME280;2307;48.448;9.216;2023-03-13T10:49:29;94609.41;;;15.49;88.39
4590;BME280;2307;48.448;9.216;2023-03-13T10:51:56;94588.47;;;15.66;86.78
4590;BME280;2307;48.448;9.216;2023-03-13T10:54:25;94587.94;;;15.64;84.51
4590;BME280;2307;48.448;9.216;2023-03-13T10:56:52;94586.63;;;15.62;84.07
4590;BME280;2307;48.448;9.216;2023-03-13T10:59:32;94575.72;;;15.63;85.27
4590;BME280;2307;48.448;9.216;2023-03-13T11:02:12;94566.38;;;15.84;86.20
4590;BME280;2307;48.448;9.216;2023-03-13T11:04:45;94565.88;;;16.01;84.14
4590;BME280;2307;48.448;9.216;2023-03-13T11:07:19;94561.75;;;16.09;83.50
4590;BME280;2307;48.448;9.216;2023-03-13T11:09:52;94559.81;;;16.33;80.80
4590;BME280;2307;48.448;9.216;2023-03-13T11:12:22;94563.88;;;16.44;81.37
4590;BME280;2307;48.448;9.216;2023-03-13T11:14:50;94546.09;;;16.58;77.64
4590;BME280;2307;48.448;9.216;2023-03-13T11:17:23;94540.22;;;16.88;78.23
4590;BME280;2307;48.448;9.216;2023-03-13T11:19:54;94526.00;;;17.07;73.24
4590;BME280;2307;48.448;9.216;2023-03-13T11:22:32;94525.69;;;16.94;73.27
4590;BME280;2307;48.448;9.216;2023-03-13T11:25:07;94526.59;;;17.04;75.15
4590;BME280;2307;48.448;9.216;2023-03-13T11:27:40;94518.00;;;17.20;71.63
4590;BME280;2307;48.448;9.216;2023-03-13T11:30:15;94506.13;;;17.40;70.71
4590;BME280;2307;48.448;9.216;2023-03-13T11:32:47;94509.75;;;17.71;67.84
4590;BME280;2307;48.448;9.216;2023-03-13T11:35:18;94514.75;;;17.86;67.49
4590;BME280;2307;48.448;9.216;2023-03-13T11:37:46;94495.03;;;17.96;63.95
4590;BME280;2307;48.448;9.216;2023-03-13T11:40:17;94477.88;;;17.88;63.40
4590;BME280;2307;48.448;9.216;2023-03-13T11:42:54;94467.00;;;17.85;62.69
4590;BME280;2307;48.448;9.216;2023-03-13T11:45:28;94478.28;;;17.82;63.15
4590;BME280;2307;48.448;9.216;2023-03-13T11:47:58;94468.69;;;17.81;63.98
4590;BME280;2307;48.448;9.216;2023-03-13T11:50:32;94463.59;;;17.93;63.86
4590;BME280;2307;48.448;9.216;2023-03-13T11:53:07;94453.84;;;18.11;61.67
4590;BME280;2307;48.448;9.216;2023-03-13T11:55:42;94446.53;;;18.02;61.10
4590;BME280;2307;48.448;9.216;2023-03-13T12:00:59;94437.88;;;18.28;60.33
4590;BME280;2307;48.448;9.216;2023-03-13T12:03:30;94430.84;;;18.54;61.88
4590;BME280;2307;48.448;9.216;2023-03-13T12:06:00;94422.84;;;18.63;59.37
4590;BME280;2307;48.448;9.216;2023-03-13T12:08:29;94422.78;;;18.93;61.29
4590;BME280;2307;48.448;9.216;2023-03-13T12:11:03;94408.28;;;18.77;57.11
4590;BME280;2307;48.448;9.216;2023-03-13T12:13:31;94383.78;;;18.92;54.57
4590;BME280;2307;48.448;9.216;2023-03-13T12:16:00;94393.22;;;18.98;53.80
4590;BME280;2307;48.448;9.216;2023-03-13T12:18:29;94386.00;;;19.07;53.08
4590;BME280;2307;48.448;9.216;2023-03-13T12:20:57;94374.09;;;19.31;52.59
4590;BME280;2307;48.448;9.216;2023-03-13T12:23:29;94372.38;;;19.60;51.47
4590;BME280;2307;48.448;9.216;2023-03-13T12:26:01;94366.06;;;19.48;50.17
4590;BME280;2307;48.448;9.216;2023-03-13T12:28:32;94361.66;;;19.69;48.11
4590;BME280;2307;48.448;9.216;2023-03-13T12:31:03;94333.75;;;19.87;47.19
4590;BME280;2307;48.448;9.216;2023-03-13T12:33:34;94326.91;;;19.98;45.83
4590;BME280;2307;48.448;9.216;2023-03-13T12:36:03;94329.50;;;19.78;45.55
4590;BME280;2307;48.448;9.216;2023-03-13T12:38:33;94317.47;;;19.92;44.99
4590;BME280;2307;48.448;9.216;2023-03-13T12:41:05;94317.66;;;19.87;43.95
4590;BME280;2307;48.448;9.216;2023-03-13T12:43:38;94298.03;;;20.12;44.62
4590;BME280;2307;48.448;9.216;2023-03-13T12:46:21;94292.91;;;20.37;44.34
4590;BME280;2307;48.448;9.216;2023-03-13T12:49:03;94296.53;;;20.70;43.07
4590;BME280;2307;48.448;9.216;2023-03-13T12:51:33;94280.59;;;20.94;42.92
4590;BME280;2307;48.448;9.216;2023-03-13T12:54:11;94276.31;;;21.23;42.35
4590;BME280;2307;48.448;9.216;2023-03-13T12:56:46;94256.94;;;21.17;40.89
4590;BME280;2307;48.448;9.216;2023-03-13T12:59:19;94254.25;;;21.17;39.56
4590;BME280;2307;48.448;9.216;2023-03-13T13:01:48;94255.75;;;21.27;40.02
4590;BME280;2307;48.448;9.216;2023-03-13T13:04:16;94229.38;;;20.99;38.87
4590;BME280;2307;48.448;9.216;2023-03-13T13:06:54;94215.38;;;20.94;39.59
4590;BME280;2307;48.448;9.216;2023-03-13T13:09:22;94221.03;;;20.80;40.24
4590;BME280;2307;48.448;9.216;2023-03-13T13:11:49;94207.00;;;20.95;40.37
4590;BME280;2307;48.448;9.216;2023-03-13T13:17:12;94208.00;;;21.44;39.55
4590;BME280;2307;48.448;9.216;2023-03-13T13:19:44;94205.53;;;21.39;40.00
4590;BME280;2307;48.448;9.216;2023-03-13T13:24:57;94192.81;;;21.93;39.48
4590;BME280;2307;48.448;9.216;2023-03-13T13:27:26;94169.44;;;21.73;37.08